createdAt,value
2023-05-08T00:00:42.813Z,99937.59
2023-05-08T00:02:14.924Z,99941.09
2023-05-08T00:03:47.187Z,99939.47
2023-05-08T00:05:19.482Z,99933.50
2023-05-08T00:06:54.467Z,99936.97
2023-05-08T00:08:26.592Z,99922.47
2023-05-08T00:09:58.752Z,99934.50
2023-05-08T00:11:30.929Z,99926.75
2023-05-08T00:13:03.001Z,99928.47
2023-05-08T00:14:35.147Z,99924.19
2023-05-08T00:16:09.879Z,99919.88
2023-05-08T00:17:42.113Z,99932.03
2023-05-08T00:19:14.192Z,99931.22
2023-05-08T00:20:46.241Z,99933.88
2023-05-08T00:22:18.354Z,99928.66
2023-05-08T00:23:50.509Z,99929.56
2023-05-08T00:25:22.623Z,99933.03
2023-05-08T00:26:54.712Z,99941.69
2023-05-08T00:28:27.157Z,99935.72
2023-05-08T00:29:59.666Z,99938.34
2023-05-08T00:31:31.785Z,99942.72
2023-05-08T00:33:03.972Z,99947.03
2023-05-08T00:34:36.770Z,99943.59
2023-05-08T00:36:09.068Z,99935.91
2023-05-08T00:37:41.714Z,99946.25
2023-05-08T00:39:13.806Z,99935.88
2023-05-08T00:40:45.949Z,99942.78
2023-05-08T00:42:17.978Z,99941.09
2023-05-08T00:43:50.075Z,99943.69
2023-05-08T00:45:22.100Z,99946.25
2023-05-08T00:46:54.213Z,99943.72
2023-05-08T00:48:29.371Z,99948.03
2023-05-08T00:50:01.830Z,99952.38
2023-05-08T00:51:34.486Z,99950.66
2023-05-08T00:53:06.825Z,99938.69
2023-05-08T00:54:39.273Z,99946.56
2023-05-08T00:56:13.953Z,99950.91
2023-05-08T00:57:48.257Z,99955.19
2023-05-08T00:59:21.601Z,99942.31
2023-05-08T01:00:56.206Z,99949.19
2023-05-08T01:02:28.933Z,99954.44
2023-05-08T01:04:01.221Z,99948.50
2023-05-08T01:05:33.966Z,99950.19
2023-05-08T01:07:06.072Z,99945.84
2023-05-08T01:08:38.193Z,99947.59
2023-05-08T01:10:11.151Z,99951.03
2023-05-08T01:12:04.960Z,99950.94
2023-05-08T01:13:48.453Z,99949.31
2023-05-08T01:15:55.238Z,99945.91
2023-05-08T01:17:51.580Z,99951.13
2023-05-08T01:19:54.284Z,99951.19
2023-05-08T01:21:41.445Z,99954.63
2023-05-08T01:23:31.379Z,99952.06
2023-05-08T01:25:09.488Z,99949.47
2023-05-08T01:27:03.531Z,99946.88
2023-05-08T01:28:54.305Z,99953.06
2023-05-08T01:30:48.683Z,99953.91
2023-05-08T01:32:33.855Z,99953.06
2023-05-08T01:34:10.982Z,99946.22
2023-05-08T01:35:48.208Z,99943.66
2023-05-08T01:37:31.488Z,99941.88
2023-05-08T01:39:19.947Z,99944.47
2023-05-08T01:40:55.711Z,99940.19
2023-05-08T01:42:46.238Z,99941.03
2023-05-08T01:44:20.797Z,99940.13
2023-05-08T01:45:54.827Z,99941.84
2023-05-08T01:47:30.757Z,99939.22
2023-05-08T01:49:11.605Z,99936.59
2023-05-08T01:50:47.335Z,99928.00
2023-05-08T01:52:26.141Z,99932.41
2023-05-08T01:54:04.657Z,99931.53
2023-05-08T01:55:38.126Z,99926.41
2023-05-08T01:57:10.032Z,99923.75
2023-05-08T01:58:42.673Z,99929.03
2023-05-08T02:00:17.040Z,99922.16
2023-05-08T02:01:53.312Z,99914.41
2023-05-08T02:03:26.713Z,99926.53
2023-05-08T02:04:59.606Z,99912.75
2023-05-08T02:06:32.814Z,99922.25
2023-05-08T02:08:05.583Z,99922.28
2023-05-08T02:09:38.563Z,99924.84
2023-05-08T02:11:12.919Z,99916.25
2023-05-08T02:12:45.355Z,99921.44
2023-05-08T02:14:19.985Z,99922.31
2023-05-08T02:15:54.630Z,99924.03
2023-05-08T02:17:27.772Z,99919.75
2023-05-08T02:19:01.347Z,99920.63
2023-05-08T02:20:33.830Z,99916.41
2023-05-08T02:22:06.450Z,99922.44
2023-05-08T02:23:38.965Z,99924.94
2023-05-08T02:25:14.865Z,99920.59
2023-05-08T02:26:47.186Z,99929.22
2023-05-08T02:28:20.142Z,99934.34
2023-05-08T02:29:52.512Z,99914.53
2023-05-08T02:31:25.168Z,99929.16
2023-05-08T02:33:00.568Z,99932.63
2023-05-08T02:34:33.190Z,99928.28
2023-05-08T02:36:05.436Z,99935.16
2023-05-08T02:37:38.289Z,99941.13
2023-05-08T02:39:12.662Z,99937.63
2023-05-08T02:40:51.552Z,99933.34
2023-05-08T02:42:23.707Z,99940.38
2023-05-08T02:43:55.978Z,99936.13
2023-05-08T02:45:34.549Z,99926.63
2023-05-08T02:47:16.154Z,99932.69
2023-05-08T02:48:57.865Z,99935.13
2023-05-08T02:50:52.913Z,99929.03
2023-05-08T02:52:30.701Z,99923.94
2023-05-08T02:54:10.895Z,99927.34
2023-05-08T02:55:51.246Z,99922.09
2023-05-08T02:57:49.562Z,99924.59
2023-05-08T02:59:32.151Z,99926.25
2023-05-08T03:01:24.879Z,99916.75
2023-05-08T03:03:01.395Z,99925.31
2023-05-08T03:04:39.984Z,99926.97
2023-05-08T03:06:15.484Z,99926.94
2023-05-08T03:07:51.028Z,99913.19
2023-05-08T03:09:26.765Z,99927.88
2023-05-08T03:11:03.424Z,99928.72
2023-05-08T03:12:36.966Z,99917.44
2023-05-08T03:14:12.154Z,99934.66
2023-05-08T03:15:55.872Z,99925.13
2023-05-08T03:17:29.409Z,99926.06
2023-05-08T03:19:01.861Z,99926.81
2023-05-08T03:20:38.031Z,99933.75
2023-05-08T03:22:10.808Z,99927.69
2023-05-08T03:23:43.532Z,99932.88
2023-05-08T03:25:17.809Z,99930.31
2023-05-08T03:26:49.964Z,99932.00
2023-05-08T03:28:23.806Z,99931.94
2023-05-08T03:29:56.648Z,99926.81
2023-05-08T03:31:28.998Z,99929.47
2023-05-08T03:33:02.698Z,99925.88
2023-05-08T03:34:35.215Z,99933.72
2023-05-08T03:36:08.270Z,99935.47
2023-05-08T03:37:40.685Z,99931.06
2023-05-08T03:39:12.976Z,99927.59
2023-05-08T03:40:45.620Z,99929.28
2023-05-08T03:42:22.077Z,99931.06
2023-05-08T03:43:55.706Z,99931.13
2023-05-08T03:45:28.823Z,99938.00
2023-05-08T03:47:01.390Z,99930.31
2023-05-08T03:48:37.199Z,99938.97
2023-05-08T03:50:09.757Z,99937.22
2023-05-08T03:51:42.038Z,99929.41
2023-05-08T03:53:14.375Z,99937.19
2023-05-08T03:54:46.535Z,99935.47
2023-05-08T03:56:18.645Z,99934.63
2023-05-08T03:58:12.884Z,99945.75
2023-05-08T04:00:03.967Z,99936.22
2023-05-08T04:01:42.662Z,99942.31
2023-05-08T04:03:23.295Z,99931.03
2023-05-08T04:05:07.419Z,99932.72
2023-05-08T04:06:51.089Z,99938.69
2023-05-08T04:08:25.567Z,99936.84
2023-05-08T04:10:06.394Z,99936.84
2023-05-08T04:11:54.252Z,99939.34
2023-05-08T04:13:28.098Z,99935.06
2023-05-08T04:15:26.014Z,99940.09
2023-05-08T04:17:02.815Z,99938.31
2023-05-08T04:18:37.697Z,99941.69
2023-05-08T04:20:12.786Z,99932.16
2023-05-08T04:21:45.278Z,99941.63
2023-05-08T04:23:19.878Z,99943.19
2023-05-08T04:24:53.305Z,99947.44
2023-05-08T04:26:25.270Z,99945.47
2023-05-08T04:27:59.148Z,99938.50
2023-05-08T04:29:31.636Z,99947.03
2023-05-08T04:31:04.402Z,99940.84
2023-05-08T04:32:40.084Z,99945.84
2023-05-08T04:34:13.228Z,99943.13
2023-05-08T04:35:46.645Z,99944.69
2023-05-08T04:37:26.079Z,99940.97
2023-05-08T04:38:59.183Z,99941.81
2023-05-08T04:40:31.540Z,99944.25
2023-05-08T04:42:05.217Z,99941.38
2023-05-08T04:43:37.785Z,99941.97
2023-05-08T04:45:10.948Z,99943.56
2023-05-08T04:46:43.317Z,99933.88
2023-05-08T04:48:15.469Z,99937.06
2023-05-08T04:49:47.850Z,99938.56
2023-05-08T04:51:20.039Z,99933.09
2023-05-08T04:52:52.165Z,99938.06
2023-05-08T04:54:24.331Z,99931.72
2023-05-08T04:55:57.703Z,99935.81
2023-05-08T04:57:29.622Z,99933.63
2023-05-08T04:59:01.789Z,99936.94
2023-05-08T05:00:35.320Z,99930.56
2023-05-08T05:02:08.623Z,99929.44
2023-05-08T05:03:40.914Z,99922.16
2023-05-08T05:05:13.346Z,99935.66
2023-05-08T05:06:45.787Z,99920.69
2023-05-08T05:08:17.874Z,99920.38
2023-05-08T05:09:50.035Z,99925.22
2023-05-08T05:11:25.132Z,99917.03
2023-05-08T05:12:57.229Z,99921.84
2023-05-08T05:14:29.322Z,99918.91
2023-05-08T05:16:01.591Z,99915.97
2023-05-08T05:17:33.915Z,99920.91
2023-05-08T05:19:06.031Z,99915.34
2023-05-08T05:20:38.178Z,99920.25
2023-05-08T05:22:10.517Z,99917.31
2023-05-08T05:23:42.798Z,99915.16
2023-05-08T05:25:15.389Z,99908.72
2023-05-08T05:26:47.637Z,99912.72
2023-05-08T05:28:19.754Z,99911.41
2023-05-08T05:29:52.050Z,99912.81
2023-05-08T05:31:24.151Z,99917.75
2023-05-08T05:32:56.291Z,99914.72
2023-05-08T05:34:28.479Z,99914.47
2023-05-08T05:36:01.061Z,99915.78
2023-05-08T05:37:33.195Z,99912.72
2023-05-08T05:39:05.303Z,99914.03
2023-05-08T05:40:37.491Z,99910.28
2023-05-08T05:42:09.731Z,99908.25
2023-05-08T05:43:41.901Z,99908.88
2023-05-08T05:45:14.367Z,99909.44
2023-05-08T05:46:46.728Z,99912.59
2023-05-08T05:48:18.800Z,99910.56
2023-05-08T05:49:50.894Z,99897.22
2023-05-08T05:51:22.966Z,99901.28
2023-05-08T05:52:55.624Z,99900.13
2023-05-08T05:54:27.751Z,99893.81
2023-05-08T05:55:59.896Z,99897.84
2023-05-08T05:57:32.245Z,99896.59
2023-05-08T05:59:04.604Z,99893.69
2023-05-08T06:00:36.845Z,99886.41
2023-05-08T06:02:10.745Z,99892.09
2023-05-08T06:03:42.987Z,99888.22
2023-05-08T06:05:15.676Z,99887.81
2023-05-08T06:06:47.804Z,99890.09
2023-05-08T06:08:19.885Z,99889.75
2023-05-08T06:09:53.530Z,99891.16
2023-05-08T06:11:26.137Z,99891.56
2023-05-08T06:12:58.311Z,99891.13
2023-05-08T06:14:30.462Z,99887.34
2023-05-08T06:16:06.291Z,99889.56
2023-05-08T06:17:38.624Z,99888.38
2023-05-08T06:19:11.328Z,99886.25
2023-05-08T06:20:43.721Z,99885.94
2023-05-08T06:22:15.813Z,99882.03
2023-05-08T06:23:47.917Z,99881.75
2023-05-08T06:25:20.281Z,99878.06
2023-05-08T06:26:54.687Z,99892.47
2023-05-08T06:28:27.798Z,99886.09
2023-05-08T06:29:59.952Z,99886.69
2023-05-08T06:31:32.067Z,99886.31
2023-05-08T06:33:04.514Z,99877.28
2023-05-08T06:34:36.747Z,99887.38
2023-05-08T06:36:09.136Z,99879.88
2023-05-08T06:37:41.254Z,99881.97
2023-05-08T06:39:13.369Z,99879.47
2023-05-08T06:40:46.241Z,99872.81
2023-05-08T06:42:18.468Z,99878.47
2023-05-08T06:43:50.689Z,99869.44
2023-05-08T06:45:22.851Z,99875.91
2023-05-08T06:46:55.640Z,99884.28
2023-05-08T06:48:29.629Z,99875.19
2023-05-08T06:50:01.776Z,99876.56
2023-05-08T06:51:35.877Z,99869.09
2023-05-08T06:53:08.428Z,99872.34
2023-05-08T06:54:41.886Z,99875.41
2023-05-08T06:56:14.008Z,99870.47
2023-05-08T06:57:46.188Z,99872.59
2023-05-08T06:59:18.406Z,99870.28
2023-05-08T07:00:50.897Z,99874.16
2023-05-08T07:02:23.116Z,99877.31
2023-05-08T07:03:55.242Z,99877.88
2023-05-08T07:05:27.345Z,99877.53
2023-05-08T07:06:59.547Z,99883.47
2023-05-08T07:08:32.761Z,99873.44
2023-05-08T07:10:07.189Z,99868.53
2023-05-08T07:11:39.987Z,99872.56
2023-05-08T07:13:12.146Z,99875.59
2023-05-08T07:14:44.206Z,99875.41
2023-05-08T07:16:18.175Z,99873.47
2023-05-08T07:17:50.364Z,99883.72
2023-05-08T07:19:22.779Z,99884.34
2023-05-08T07:20:56.315Z,99882.31
2023-05-08T07:22:28.432Z,99881.09
2023-05-08T07:24:00.649Z,99887.00
2023-05-08T07:25:32.784Z,99892.56
2023-05-08T07:27:05.141Z,99894.00
2023-05-08T07:28:37.519Z,99895.38
2023-05-08T07:30:13.019Z,99889.75
2023-05-08T07:31:57.811Z,99900.09
2023-05-08T08:35:55.097Z,99919.81
2023-05-08T08:37:27.559Z,99919.06
2023-05-08T08:38:59.949Z,99918.22
2023-05-08T08:40:32.189Z,99921.25
2023-05-08T08:42:04.748Z,99925.84
2023-05-08T08:43:40.194Z,99925.66
2023-05-08T08:45:12.807Z,99930.13
2023-05-08T08:46:51.740Z,99924.78
2023-05-08T08:48:28.972Z,99930.59
2023-05-08T08:50:04.197Z,99932.03
2023-05-08T08:51:55.202Z,99940.13
2023-05-08T08:53:28.076Z,99938.03
2023-05-08T08:55:02.090Z,99938.66
2023-05-08T08:56:35.047Z,99934.44
2023-05-08T08:58:15.720Z,99940.81
2023-05-08T08:59:48.101Z,99943.34
2023-05-08T09:01:21.325Z,99947.78
2023-05-08T09:02:53.784Z,99938.59
2023-05-08T09:04:27.824Z,99945.44
2023-05-08T09:06:03.655Z,99941.28
2023-05-08T09:07:36.486Z,99947.00
2023-05-08T09:09:08.987Z,99948.06
2023-05-08T09:10:41.629Z,99954.47
2023-05-08T09:12:14.928Z,99946.34
2023-05-08T09:13:46.926Z,99937.31
2023-05-08T09:15:19.245Z,99949.19
2023-05-08T09:16:51.658Z,99944.06
2023-05-08T09:18:23.974Z,99934.88
2023-05-08T09:21:28.106Z,99945.44
2023-05-08T09:23:03.357Z,99940.94
2023-05-08T09:24:53.929Z,99950.50
2023-05-08T09:26:38.019Z,99942.97
2023-05-08T09:28:24.239Z,99936.94
2023-05-08T09:29:59.513Z,99943.88
2023-05-08T09:31:40.317Z,99936.91
2023-05-08T09:33:12.591Z,99940.72
2023-05-08T09:34:53.109Z,99940.03
2023-05-08T09:36:28.966Z,99936.31
2023-05-08T09:38:01.152Z,99931.44
2023-05-08T09:39:33.490Z,99942.63
2023-05-08T09:41:16.281Z,99936.59
2023-05-08T09:42:50.097Z,99933.88
2023-05-08T09:44:22.230Z,99927.31
2023-05-08T09:45:54.517Z,99948.81
2023-05-08T09:47:26.873Z,99944.63
2023-05-08T09:49:00.843Z,99944.31
2023-05-08T09:50:34.014Z,99942.53
2023-05-08T09:52:06.329Z,99944.22
2023-05-08T09:53:38.554Z,99946.22
2023-05-08T09:55:11.819Z,99955.19
2023-05-08T09:56:43.829Z,99955.97
2023-05-08T09:58:16.047Z,99954.63
2023-05-08T09:59:48.174Z,99953.34
2023-05-08T10:01:36.207Z,99953.44
2023-05-08T10:03:08.613Z,99960.13
2023-05-08T10:04:41.000Z,99959.00
2023-05-08T10:06:15.173Z,99960.72
2023-05-08T10:07:47.528Z,99958.63
2023-05-08T10:09:19.992Z,99959.38
2023-05-08T10:10:52.497Z,99954.97
2023-05-08T10:12:25.368Z,99964.09
2023-05-08T10:14:00.329Z,99961.56
2023-05-08T10:15:33.310Z,99963.06
2023-05-08T10:17:07.010Z,99963.84
2023-05-08T10:18:40.216Z,99976.53
2023-05-08T10:20:15.246Z,99973.44
2023-05-08T10:21:49.924Z,99971.72
2023-05-08T10:23:23.214Z,99986.59
2023-05-08T10:24:56.681Z,99984.28
2023-05-08T10:26:32.265Z,99986.03
2023-05-08T10:28:24.888Z,99996.75
2023-05-08T10:30:02.634Z,99990.66
2023-05-08T10:31:36.866Z,99989.03
2023-05-08T10:33:11.192Z,99996.38
2023-05-08T10:34:44.576Z,100004.72
2023-05-08T10:36:17.313Z,100004.53
2023-05-08T10:37:50.457Z,100003.69
2023-05-08T10:39:23.319Z,100007.97
2023-05-08T10:40:58.482Z,100002.03
2023-05-08T10:42:30.998Z,100008.72
2023-05-08T10:44:03.700Z,100014.84
2023-05-08T10:45:36.311Z,100011.03
2023-05-08T10:47:23.349Z,100015.53
2023-05-08T10:49:07.376Z,100016.72
2023-05-08T10:50:59.437Z,100027.81
2023-05-08T10:52:43.137Z,100015.25
2023-05-08T10:54:35.349Z,100015.41
2023-05-08T10:56:08.044Z,100025.69
2023-05-08T10:57:41.085Z,100024.97
2023-05-08T10:59:20.385Z,100026.94
2023-05-08T11:00:52.918Z,100014.28
2023-05-08T11:02:33.275Z,100026.53
2023-05-08T11:04:21.229Z,100020.13
2023-05-08T11:05:55.188Z,100026.22
2023-05-08T11:07:32.288Z,100023.44
2023-05-08T11:09:06.694Z,100031.50
2023-05-08T11:10:41.355Z,100040.34
2023-05-08T11:12:29.151Z,100034.38
2023-05-08T11:14:09.996Z,100037.44
2023-05-08T11:15:42.957Z,100044.22
2023-05-08T11:17:24.111Z,100044.28
2023-05-08T11:19:18.772Z,100046.69
2023-05-08T11:21:05.483Z,100042.66
2023-05-08T11:22:38.695Z,100050.47
2023-05-08T11:24:12.276Z,100046.13
2023-05-08T11:25:45.266Z,100052.22
2023-05-08T11:27:17.811Z,100050.47
2023-05-08T11:28:57.241Z,100054.84
2023-05-08T11:30:36.563Z,100053.16
2023-05-08T11:32:08.989Z,100047.38
2023-05-08T11:33:41.829Z,100046.19
2023-05-08T11:35:15.237Z,100052.47
2023-05-08T11:37:02.572Z,100058.19
2023-05-08T11:38:36.835Z,100053.63
2023-05-08T11:40:53.612Z,100057.94
2023-05-08T11:42:26.066Z,100060.97
2023-05-08T11:44:09.910Z,100059.66
2023-05-08T11:45:43.373Z,100058.47
2023-05-08T11:47:19.409Z,100054.00
2023-05-08T11:49:00.308Z,100062.50
2023-05-08T11:50:32.612Z,100064.50
2023-05-08T11:52:06.503Z,100066.88
2023-05-08T11:53:38.954Z,100059.50
2023-05-08T11:55:12.666Z,100053.63
2023-05-08T11:56:49.007Z,100052.84
2023-05-08T11:58:22.074Z,100044.63
2023-05-08T11:59:56.978Z,100045.81
2023-05-08T12:01:29.154Z,100051.78
2023-05-08T12:03:01.493Z,100040.88
2023-05-08T12:04:44.102Z,100042.69
2023-05-08T12:06:16.710Z,100039.03
2023-05-08T12:07:49.347Z,100035.75
2023-05-08T12:09:22.715Z,100040.44
2023-05-08T12:10:56.139Z,100029.66
2023-05-08T12:12:41.690Z,100033.72
2023-05-08T12:14:15.612Z,100036.03
2023-05-08T12:15:49.371Z,100030.34
2023-05-08T12:17:21.926Z,100026.31
2023-05-08T12:18:57.272Z,100038.09
2023-05-08T12:20:30.244Z,100036.31
2023-05-08T12:22:03.171Z,100040.19
2023-05-08T12:23:35.560Z,100032.63
2023-05-08T12:25:09.592Z,100042.13
2023-05-08T12:26:42.003Z,100036.09
2023-05-08T12:28:14.285Z,100046.06
2023-05-08T12:29:47.476Z,100042.47
2023-05-08T12:31:19.714Z,100041.78
2023-05-08T12:32:52.193Z,100039.41
2023-05-08T12:34:25.003Z,100034.94
2023-05-08T12:35:57.735Z,100043.50
2023-05-08T12:37:30.094Z,100039.06
2023-05-08T12:39:18.945Z,100048.34
2023-05-08T12:40:53.613Z,100049.44
2023-05-08T12:42:48.902Z,100044.59
2023-05-08T12:44:25.896Z,100040.53
2023-05-08T12:45:58.189Z,100042.38
2023-05-08T12:47:31.159Z,100038.50
2023-05-08T12:49:11.755Z,100041.22
2023-05-08T12:50:46.212Z,100039.78
2023-05-08T12:52:19.740Z,100042.81
2023-05-08T12:53:51.932Z,100045.44
2023-05-08T12:55:28.171Z,100040.78
2023-05-08T12:57:00.343Z,100046.38
2023-05-08T12:58:34.868Z,100048.91
2023-05-08T13:00:07.834Z,100046.38
2023-05-08T13:01:39.961Z,100051.38
2023-05-08T13:03:14.514Z,100048.22
2023-05-08T13:04:48.108Z,100046.00
2023-05-08T13:06:21.894Z,100056.41
2023-05-08T13:08:00.274Z,100060.78
2023-05-08T13:09:32.836Z,100063.19
2023-05-08T13:11:08.819Z,100057.41
2023-05-08T13:12:41.105Z,100069.53
2023-05-08T13:14:13.391Z,100064.44
2023-05-08T13:15:46.247Z,100069.44
2023-05-08T13:17:19.390Z,100072.06
2023-05-08T13:18:51.843Z,100079.47
2023-05-08T13:20:24.147Z,100075.47
2023-05-08T13:21:56.396Z,100073.03
2023-05-08T13:23:29.294Z,100081.69
2023-05-08T13:25:04.460Z,100080.59
2023-05-08T13:26:36.748Z,100086.25
2023-05-08T13:28:10.012Z,100093.41
2023-05-08T13:29:42.128Z,100093.34
2023-05-08T13:31:14.406Z,100091.38
2023-05-08T13:32:46.787Z,100095.06
2023-05-08T13:34:19.041Z,100100.31
2023-05-08T13:35:51.366Z,100099.81
2023-05-08T13:37:23.563Z,100102.50
2023-05-08T13:38:57.857Z,100102.69
2023-05-08T13:40:30.414Z,100101.13
2023-05-08T13:42:02.729Z,100098.56
2023-05-08T13:43:37.215Z,100095.16
2023-05-08T13:45:16.944Z,100091.81
2023-05-08T13:46:49.254Z,100090.09
2023-05-08T13:48:21.504Z,100089.25
2023-05-08T13:49:53.873Z,100079.75
2023-05-08T13:51:26.967Z,100086.06
2023-05-08T13:52:59.274Z,100092.94
2023-05-08T13:54:31.931Z,100087.81
2023-05-08T13:56:04.427Z,100096.16
2023-05-08T13:57:37.206Z,100090.81
2023-05-08T13:59:09.524Z,100085.56
2023-05-08T14:00:41.820Z,100088.19
2023-05-08T14:02:14.733Z,100095.16
2023-05-08T14:03:47.193Z,100096.09
2023-05-08T14:05:19.613Z,100091.88
2023-05-08T14:06:51.680Z,100091.09
2023-05-08T14:08:24.014Z,100092.03
2023-05-08T14:09:56.333Z,100093.09
2023-05-08T14:11:29.979Z,100101.13
2023-05-08T14:13:02.265Z,100103.28
2023-05-08T14:14:34.691Z,100102.66
2023-05-08T14:16:08.604Z,100110.78
2023-05-08T14:17:42.532Z,100109.94
2023-05-08T14:19:14.896Z,100115.34
2023-05-08T14:20:51.659Z,100120.88
2023-05-08T14:22:29.013Z,100126.97
2023-05-08T14:24:01.924Z,100131.75
2023-05-08T14:25:34.192Z,100129.91
2023-05-08T14:27:06.477Z,100145.09
2023-05-08T14:28:38.732Z,100144.56
2023-05-08T14:30:11.569Z,100145.63
2023-05-08T14:31:44.006Z,100137.06
2023-05-08T14:33:18.524Z,100141.88
2023-05-08T14:34:51.590Z,100148.00
2023-05-08T14:36:23.895Z,100145.91
2023-05-08T14:37:56.188Z,100153.72
2023-05-08T14:39:28.436Z,100144.59
2023-05-08T14:41:04.364Z,100151.00
2023-05-08T14:42:37.052Z,100147.59
2023-05-08T14:44:09.385Z,100152.03
2023-05-08T14:45:41.655Z,100152.97
2023-05-08T14:47:13.893Z,100149.56
2023-05-08T14:48:46.114Z,100152.38
2023-05-08T14:50:18.481Z,100151.56
2023-05-08T14:51:50.668Z,100152.50
2023-05-08T14:53:23.817Z,100154.19
2023-05-08T14:54:56.472Z,100149.88
2023-05-08T14:56:34.595Z,100154.25
2023-05-08T14:58:12.804Z,100142.94
2023-05-08T14:59:54.156Z,100150.78
2023-05-08T15:01:27.996Z,100142.16
2023-05-08T15:03:00.317Z,100149.19
2023-05-08T15:04:32.600Z,100143.31
2023-05-08T15:06:05.487Z,100144.19
2023-05-08T15:07:39.024Z,100147.84
2023-05-08T15:09:12.796Z,100137.38
2023-05-08T15:10:45.095Z,100139.94
2023-05-08T15:12:17.224Z,100147.78
2023-05-08T15:13:49.484Z,100135.69
2023-05-08T15:15:21.689Z,100137.38
2023-05-08T15:16:53.972Z,100136.59
2023-05-08T15:18:28.965Z,100140.13
2023-05-08T15:20:01.128Z,100137.56
2023-05-08T15:21:33.395Z,100140.19
2023-05-08T15:23:05.902Z,100139.34
2023-05-08T15:24:38.235Z,100124.13
2023-05-08T15:26:10.985Z,100141.16
2023-05-08T15:27:45.503Z,100143.97
2023-05-08T15:29:17.634Z,100142.13
2023-05-08T15:30:49.879Z,100146.44
2023-05-08T15:32:22.342Z,100144.66
2023-05-08T15:33:54.480Z,100142.13
2023-05-08T15:35:27.111Z,100145.59
2023-05-08T15:36:59.270Z,100141.25
2023-05-08T15:38:31.596Z,100137.81
2023-05-08T15:40:03.943Z,100135.19
2023-05-08T15:41:37.691Z,100131.72
2023-05-08T15:43:09.820Z,100143.03
2023-05-08T15:44:54.450Z,100138.66
2023-05-08T15:46:27.145Z,100139.53
2023-05-08T15:47:59.402Z,100147.22
2023-05-08T15:49:31.632Z,100146.34
2023-05-08T15:51:03.930Z,100144.63
2023-05-08T15:52:36.055Z,100149.91
2023-05-08T15:54:08.295Z,100142.97
2023-05-08T15:55:40.474Z,100150.81
2023-05-08T15:57:12.642Z,100145.66
2023-05-08T15:58:44.915Z,100151.84
2023-05-08T16:00:17.407Z,100147.59
2023-05-08T16:01:50.812Z,100145.13
2023-05-08T16:03:24.876Z,100146.94
2023-05-08T16:04:57.277Z,100147.03
2023-05-08T16:06:29.486Z,100148.84
2023-05-08T16:08:01.883Z,100145.38
2023-05-08T16:09:34.023Z,100153.25
2023-05-08T16:11:06.174Z,100154.13
2023-05-08T16:12:38.418Z,100154.13
2023-05-08T16:14:10.601Z,100159.34
2023-05-08T16:15:43.924Z,100159.34
2023-05-08T16:17:16.101Z,100150.44
2023-05-08T16:18:48.257Z,100153.22
2023-05-08T16:20:20.782Z,100148.84
2023-05-08T16:21:52.879Z,100141.84
2023-05-08T16:23:25.027Z,100144.34
2023-05-08T16:24:57.341Z,100146.09
2023-05-08T16:26:29.447Z,100145.22
2023-05-08T16:28:01.584Z,100148.78
2023-05-08T16:29:33.656Z,100156.72
2023-05-08T16:31:07.997Z,100154.13
2023-05-08T16:32:43.211Z,100155.84
2023-05-08T16:34:15.389Z,100159.38
2023-05-08T16:35:47.549Z,100161.19
2023-05-08T16:37:19.913Z,100164.75
2023-05-08T16:38:52.382Z,100155.28
2023-05-08T16:40:24.451Z,100163.06
2023-05-08T16:41:56.698Z,100162.16
2023-05-08T16:43:28.844Z,100162.41
2023-05-08T16:45:01.054Z,100180.56
2023-05-08T16:46:33.284Z,100186.69
2023-05-08T16:48:05.537Z,100178.97
2023-05-08T16:49:37.828Z,100182.53
2023-05-08T16:51:09.992Z,100190.44
2023-05-08T16:52:42.033Z,100192.25
2023-05-08T16:54:14.270Z,100191.38
2023-05-08T16:55:46.598Z,100191.56
2023-05-08T16:57:18.833Z,100195.47
2023-05-08T16:58:51.020Z,100194.81
2023-05-08T17:00:23.547Z,100195.81
2023-05-08T17:01:55.774Z,100193.19
2023-05-08T17:03:28.125Z,100190.53
2023-05-08T17:05:00.327Z,100205.25
2023-05-08T17:08:04.349Z,100198.91
2023-05-08T17:09:36.423Z,100197.09
2023-05-08T17:11:08.580Z,100205.75
2023-05-08T17:12:40.683Z,100199.56
2023-05-08T17:14:13.036Z,100197.84
2023-05-08T17:15:45.143Z,100199.66
2023-05-08T17:17:17.418Z,100201.47
2023-05-08T17:18:51.948Z,100197.84
2023-05-08T17:20:24.357Z,100206.75
2023-05-08T17:21:58.232Z,100205.09
2023-05-08T17:23:31.863Z,100206.97
2023-05-08T17:25:04.160Z,100203.59
2023-05-08T17:26:36.881Z,100209.78
2023-05-08T17:28:09.038Z,100208.16
2023-05-08T17:29:41.259Z,100220.38
2023-05-08T17:31:15.076Z,100218.69
2023-05-08T17:32:51.939Z,100222.25
2023-05-08T17:34:24.184Z,100220.69
2023-05-08T17:35:56.367Z,100224.09
2023-05-08T17:37:28.452Z,100225.19
2023-05-08T17:39:00.587Z,100229.59
2023-05-08T17:40:33.536Z,100227.97
2023-05-08T17:42:06.164Z,100231.63
2023-05-08T17:43:38.490Z,100226.41
2023-05-08T17:45:11.068Z,100232.66
2023-05-08T17:46:43.231Z,100235.50
2023-05-08T17:48:15.373Z,100242.44
2023-05-08T17:49:47.671Z,100250.28
2023-05-08T17:51:19.777Z,100251.34
2023-05-08T17:52:52.176Z,100252.00
2023-05-08T17:54:24.427Z,100252.81
2023-05-08T17:55:57.146Z,100248.47
2023-05-08T17:57:29.316Z,100255.31
2023-05-08T17:59:01.388Z,100253.53
2023-05-08T18:00:33.544Z,100258.09
2023-05-08T18:02:05.749Z,100259.75
2023-05-08T18:03:38.028Z,100259.81
2023-05-08T18:05:10.457Z,100254.63
2023-05-08T18:06:43.828Z,100269.50
2023-05-08T18:08:15.791Z,100273.72
2023-05-08T18:09:47.892Z,100282.72
2023-05-08T18:11:22.764Z,100277.69
2023-05-08T18:12:54.889Z,100277.16
2023-05-08T18:14:30.369Z,100279.66
2023-05-08T18:16:02.543Z,100278.91
2023-05-08T18:17:34.863Z,100278.94
2023-05-08T18:19:07.119Z,100282.59
2023-05-08T18:20:39.405Z,100276.41
2023-05-08T18:22:11.567Z,100286.00
2023-05-08T18:23:43.749Z,100289.63
2023-05-08T18:25:16.008Z,100296.59
2023-05-08T18:26:48.815Z,100294.84
2023-05-08T18:28:22.284Z,100309.78
2023-05-08T18:29:54.628Z,100309.94
2023-05-08T18:31:26.704Z,100311.03
2023-05-08T18:32:58.953Z,100308.47
2023-05-08T18:34:32.794Z,100311.91
2023-05-08T18:36:07.433Z,100312.72
2023-05-08T18:37:39.606Z,100317.09
2023-05-08T18:39:11.689Z,100313.63
2023-05-08T18:40:44.645Z,100319.69
2023-05-08T18:42:16.761Z,100316.31
2023-05-08T18:43:48.969Z,100325.84
2023-05-08T18:45:21.243Z,100324.13
2023-05-08T18:46:53.378Z,100327.69
2023-05-08T18:48:27.432Z,100331.31
2023-05-08T18:50:00.378Z,100331.31
2023-05-08T18:51:32.612Z,100334.03
2023-05-08T18:53:04.799Z,100340.88
2023-05-08T18:54:36.946Z,100337.44
2023-05-08T18:56:09.154Z,100345.31
2023-05-08T18:57:41.264Z,100347.06
2023-05-08T18:59:13.319Z,100353.94
2023-05-08T19:00:45.507Z,100346.22
2023-05-08T19:02:17.664Z,100354.94
2023-05-08T19:03:49.790Z,100350.63
2023-05-08T19:05:22.207Z,100353.25
2023-05-08T19:06:54.373Z,100352.41
2023-05-08T19:08:26.530Z,100348.94
2023-05-08T19:09:58.682Z,100352.31
2023-05-08T19:11:30.800Z,100350.59
2023-05-08T19:13:03.074Z,100354.91
2023-05-08T19:14:35.314Z,100357.59
2023-05-08T19:16:07.432Z,100363.63
2023-05-08T19:17:40.516Z,100365.53
2023-05-08T19:19:12.779Z,100369.03